createdAt,value
2023-04-30T00:01:03.432Z,100919.31
2023-04-30T00:06:00.125Z,100919.84
2023-04-30T00:10:57.352Z,100914.06
2023-04-30T00:15:54.065Z,100893.75
2023-04-30T00:20:53.062Z,100910.78
2023-04-30T00:25:49.706Z,100910.63
2023-04-30T00:30:48.928Z,100907.28
2023-04-30T00:35:45.585Z,100909.00
2023-04-30T00:40:43.353Z,100898.66
2023-04-30T00:45:40.612Z,100898.56
2023-04-30T00:50:37.982Z,100895.41
2023-04-30T00:55:35.956Z,100896.06
2023-04-30T01:00:33.267Z,100890.59
2023-04-30T01:05:30.259Z,100889.69
2023-04-30T01:10:32.326Z,100891.03
2023-04-30T01:15:31.451Z,100863.34
2023-04-30T01:20:29.568Z,100879.88
2023-04-30T01:25:44.834Z,100883.09
2023-04-30T01:30:45.923Z,100889.09
2023-04-30T01:35:57.658Z,100880.94
2023-04-30T01:40:57.607Z,100876.13
2023-04-30T01:46:00.148Z,100869.31
2023-04-30T01:51:01.832Z,100863.09
2023-04-30T01:56:02.151Z,100859.75
2023-04-30T02:00:59.954Z,100861.84
2023-04-30T02:05:58.483Z,100863.34
2023-04-30T02:10:55.108Z,100865.28
2023-04-30T02:15:54.386Z,100868.16
2023-04-30T02:20:52.140Z,100863.41
2023-04-30T02:25:48.958Z,100867.91
2023-04-30T02:30:45.643Z,100866.06
2023-04-30T02:35:42.324Z,100875.72
2023-04-30T02:40:40.574Z,100877.03
2023-04-30T02:45:37.498Z,100875.22
2023-04-30T02:50:34.339Z,100870.69
2023-04-30T02:55:32.396Z,100878.16
2023-04-30T03:00:29.785Z,100875.56
2023-04-30T03:05:27.203Z,100889.38
2023-04-30T03:10:23.893Z,100886.75
2023-04-30T03:15:21.022Z,100888.03
2023-04-30T03:20:18.583Z,100893.19
2023-04-30T03:25:15.313Z,100900.00
2023-04-30T03:30:12.047Z,100898.44
2023-04-30T03:35:08.931Z,100898.59
2023-04-30T03:40:08.949Z,100915.84
2023-04-30T03:45:06.391Z,100917.56
2023-04-30T03:50:03.666Z,100923.25
2023-04-30T03:55:00.320Z,100925.53
2023-04-30T03:59:58.262Z,100921.34
2023-04-30T04:04:54.825Z,100921.06
2023-04-30T04:09:51.506Z,100919.09
2023-04-30T04:14:48.353Z,100919.91
2023-04-30T04:19:45.866Z,100914.28
2023-04-30T04:24:43.446Z,100918.22
2023-04-30T04:29:43.810Z,100917.50
2023-04-30T04:34:40.388Z,100922.53
2023-04-30T04:39:37.957Z,100928.53
2023-04-30T04:44:34.685Z,100926.47
2023-04-30T04:49:31.417Z,100922.94
2023-04-30T04:54:28.232Z,100925.53
2023-04-30T04:59:26.051Z,100928.72
2023-04-30T05:04:22.717Z,100929.25
2023-04-30T05:09:19.849Z,100923.25
2023-04-30T05:14:16.692Z,100932.81
2023-04-30T05:19:14.440Z,100939.09
2023-04-30T05:24:11.057Z,100937.97
2023-04-30T05:29:07.957Z,100944.69
2023-04-30T05:34:04.633Z,100949.94
2023-04-30T05:39:05.182Z,100950.06
2023-04-30T05:44:04.456Z,100956.91
2023-04-30T05:49:01.468Z,100950.22
2023-04-30T05:53:58.154Z,100948.00
2023-04-30T05:58:55.473Z,100946.38
2023-04-30T06:03:52.390Z,100927.69
2023-04-30T06:08:51.922Z,100944.03
2023-04-30T06:13:48.807Z,100948.72
2023-04-30T06:18:46.087Z,100946.19
2023-04-30T06:23:42.736Z,100958.66
2023-04-30T06:28:39.539Z,100935.94
2023-04-30T06:33:36.488Z,100965.09
2023-04-30T06:38:34.000Z,100960.34
2023-04-30T06:43:30.689Z,100959.66
2023-04-30T06:48:30.369Z,100967.97
2023-04-30T06:53:27.051Z,100966.53
2023-04-30T06:58:24.365Z,100972.38
2023-04-30T07:03:21.199Z,100963.97
2023-04-30T07:08:17.925Z,100973.44
2023-04-30T07:13:15.930Z,100973.44
2023-04-30T07:18:13.423Z,100970.97
2023-04-30T07:23:11.560Z,100969.84
2023-04-30T07:28:08.443Z,100965.75
2023-04-30T07:33:05.198Z,100969.34
2023-04-30T07:38:02.878Z,100967.53
2023-04-30T07:42:59.366Z,100961.91
2023-04-30T07:47:56.058Z,100966.53
2023-04-30T07:52:52.636Z,100958.28
2023-04-30T07:57:49.854Z,100968.38
2023-04-30T08:02:47.956Z,100967.00
2023-04-30T08:07:44.992Z,100963.72
2023-04-30T08:12:41.673Z,100949.63
2023-04-30T08:17:39.230Z,100952.50
2023-04-30T08:22:36.070Z,100951.03
2023-04-30T08:27:33.015Z,100948.91
2023-04-30T08:32:29.974Z,100946.44
2023-04-30T08:37:27.437Z,100946.81
2023-04-30T08:42:26.278Z,100953.56
2023-04-30T08:47:26.789Z,100941.78
2023-04-30T08:52:24.749Z,100921.22
2023-04-30T08:57:21.990Z,100938.56
2023-04-30T09:02:18.641Z,100935.09
2023-04-30T09:07:15.515Z,100928.28
2023-04-30T09:12:14.372Z,100929.19
2023-04-30T09:17:21.407Z,100912.69
2023-04-30T09:22:21.796Z,100916.72
2023-04-30T09:27:18.936Z,100909.97
2023-04-30T09:32:18.814Z,100900.44
2023-04-30T09:37:15.754Z,100886.91
2023-04-30T09:42:12.439Z,100889.34
2023-04-30T09:47:11.378Z,100889.97
2023-04-30T09:52:09.047Z,100890.28
2023-04-30T09:57:10.264Z,100859.69
2023-04-30T10:02:07.874Z,100880.19
2023-04-30T10:07:06.824Z,100883.25
2023-04-30T10:12:05.852Z,100876.22
2023-04-30T10:17:06.250Z,100863.91
2023-04-30T10:22:03.396Z,100876.56
2023-04-30T10:27:00.785Z,100863.91
2023-04-30T10:31:58.563Z,100871.88
2023-04-30T10:36:58.483Z,100863.88
2023-04-30T10:42:01.125Z,100854.69
2023-04-30T10:47:02.797Z,100859.06
2023-04-30T10:52:00.059Z,100856.81
2023-04-30T10:57:09.906Z,100855.22
2023-04-30T11:02:11.021Z,100853.56
2023-04-30T11:07:09.511Z,100861.06
2023-04-30T11:12:10.801Z,100859.81
2023-04-30T11:17:09.034Z,100859.53
2023-04-30T11:22:22.397Z,100857.72
2023-04-30T11:27:23.249Z,100853.16
2023-04-30T11:32:21.266Z,100853.81
2023-04-30T11:37:19.468Z,100851.69
2023-04-30T11:42:18.714Z,100854.78
2023-04-30T11:47:16.159Z,100835.63
2023-04-30T11:52:13.714Z,100831.03
2023-04-30T11:57:10.519Z,100827.19
2023-04-30T12:02:07.627Z,100820.53
2023-04-30T12:07:08.124Z,100820.09
2023-04-30T12:12:05.722Z,100820.13
2023-04-30T12:17:02.434Z,100809.09
2023-04-30T12:22:01.980Z,100800.31
2023-04-30T12:26:59.630Z,100802.72
2023-04-30T12:31:57.524Z,100787.69
2023-04-30T12:36:58.108Z,100785.88
2023-04-30T12:41:54.979Z,100781.66
2023-04-30T12:46:55.995Z,100758.59
2023-04-30T12:51:56.658Z,100771.25
2023-04-30T12:57:00.993Z,100770.13
2023-04-30T13:02:05.865Z,100762.75
2023-04-30T13:07:04.056Z,100759.47
2023-04-30T13:12:01.149Z,100753.28
2023-04-30T13:16:58.306Z,100757.88
2023-04-30T13:21:54.908Z,100747.44
2023-04-30T13:26:52.172Z,100741.03
2023-04-30T13:31:49.426Z,100715.19
2023-04-30T13:36:46.584Z,100733.63
2023-04-30T13:41:43.333Z,100736.88
2023-04-30T13:46:40.952Z,100736.34
2023-04-30T13:51:37.726Z,100728.88
2023-04-30T13:56:36.437Z,100735.25
2023-04-30T14:01:33.761Z,100731.72
2023-04-30T14:06:31.529Z,100727.72
2023-04-30T14:11:28.240Z,100734.34
2023-04-30T14:16:28.277Z,100734.22
2023-04-30T14:21:25.062Z,100731.28
2023-04-30T14:26:22.576Z,100731.50
2023-04-30T14:31:19.451Z,100721.53
2023-04-30T14:36:16.199Z,100726.88
2023-04-30T14:41:12.989Z,100737.56
2023-04-30T14:46:11.249Z,100732.09
2023-04-30T14:51:08.055Z,100731.25
2023-04-30T14:56:06.495Z,100730.97
2023-04-30T15:01:03.218Z,100733.41
2023-04-30T15:06:00.637Z,100734.94
2023-04-30T15:10:59.261Z,100734.59
2023-04-30T15:15:56.063Z,100739.44
2023-04-30T15:20:53.270Z,100742.50
2023-04-30T15:25:53.635Z,100737.16
2023-04-30T15:30:51.199Z,100730.78
2023-04-30T15:35:48.271Z,100716.06
2023-04-30T15:40:45.040Z,100731.00
2023-04-30T15:45:42.517Z,100728.69
2023-04-30T15:50:39.225Z,100739.38
2023-04-30T15:55:36.282Z,100734.41
2023-04-30T16:00:33.453Z,100736.41
2023-04-30T16:05:31.028Z,100742.97
2023-04-30T16:10:27.887Z,100752.19
2023-04-30T16:15:25.165Z,100751.00
2023-04-30T16:20:27.055Z,100751.28
2023-04-30T16:25:24.410Z,100757.69
2023-04-30T16:30:21.249Z,100765.25
2023-04-30T16:35:18.064Z,100761.88
2023-04-30T16:40:14.819Z,100744.66
2023-04-30T16:45:12.284Z,100776.19
2023-04-30T16:50:09.148Z,100772.09
2023-04-30T16:55:06.668Z,100774.03
2023-04-30T17:00:05.865Z,100775.13
2023-04-30T17:05:03.461Z,100777.44
2023-04-30T17:10:00.263Z,100777.44
2023-04-30T17:14:57.246Z,100789.06
2023-04-30T17:19:54.363Z,100789.44
2023-04-30T17:24:51.932Z,100793.91
2023-04-30T17:29:48.715Z,100791.59
2023-04-30T17:34:45.903Z,100786.63
2023-04-30T17:39:42.869Z,100800.72
2023-04-30T17:44:40.628Z,100792.31
2023-04-30T17:49:37.301Z,100808.72
2023-04-30T17:54:34.075Z,100824.47
2023-04-30T17:59:30.929Z,100832.34
2023-04-30T18:04:28.219Z,100819.91
2023-04-30T18:09:25.438Z,100840.22
2023-04-30T18:14:22.280Z,100850.50
2023-04-30T18:19:19.115Z,100853.28
2023-04-30T18:24:17.063Z,100862.22
2023-04-30T18:29:15.638Z,100875.31
2023-04-30T18:34:17.096Z,100878.59
2023-04-30T18:39:14.174Z,100888.28
2023-04-30T18:44:12.954Z,100888.66
2023-04-30T18:49:09.624Z,100891.09
2023-04-30T18:54:06.363Z,100891.66
2023-04-30T18:59:03.182Z,100900.75
2023-04-30T19:04:00.973Z,100897.59
2023-04-30T19:08:59.168Z,100911.03
2023-04-30T19:13:55.817Z,100921.34
2023-04-30T19:18:52.614Z,100926.13
2023-04-30T19:23:50.108Z,100935.41
2023-04-30T19:28:47.420Z,100948.69
2023-04-30T19:33:45.811Z,100948.56
2023-04-30T19:38:42.637Z,100955.63
2023-04-30T19:43:40.086Z,100958.84
2023-04-30T19:48:36.875Z,100955.13
2023-04-30T19:53:33.615Z,100965.31
2023-04-30T19:58:30.428Z,100962.66
2023-04-30T20:03:28.240Z,100976.88
2023-04-30T20:08:24.964Z,100983.72
2023-04-30T20:13:23.829Z,100994.72
2023-04-30T20:18:20.573Z,101018.16
2023-04-30T20:23:18.668Z,101019.28
2023-04-30T20:28:15.786Z,101025.31
2023-04-30T20:33:13.408Z,101035.84
2023-04-30T20:38:10.261Z,101054.09
2023-04-30T20:43:09.361Z,101052.81
2023-04-30T20:48:06.891Z,101043.34
2023-04-30T20:53:03.576Z,101048.84
2023-04-30T20:58:01.152Z,101041.19
2023-04-30T21:02:58.760Z,101048.88
2023-04-30T21:08:00.362Z,101049.94
2023-04-30T21:12:57.218Z,101060.09
2023-04-30T21:17:54.498Z,101044.19
2023-04-30T21:22:54.704Z,101042.59
2023-04-30T21:27:52.121Z,101049.59
2023-04-30T21:32:49.079Z,101042.25
2023-04-30T21:37:45.733Z,101035.31
2023-04-30T21:42:43.095Z,101046.63
2023-04-30T21:47:39.770Z,101052.09
2023-04-30T21:52:36.426Z,101048.59
2023-04-30T21:57:33.034Z,101042.16
2023-04-30T22:02:32.437Z,101032.47
2023-04-30T22:07:29.157Z,101042.41
2023-04-30T22:12:26.201Z,101049.63
2023-04-30T22:17:23.172Z,101059.69
2023-04-30T22:22:20.599Z,101069.94
2023-04-30T22:27:17.444Z,101053.16
2023-04-30T22:32:14.139Z,101062.38
2023-04-30T22:37:13.635Z,101061.13
2023-04-30T22:42:11.000Z,101054.69
2023-04-30T22:47:07.740Z,101067.72
2023-04-30T22:52:04.483Z,101063.03
2023-04-30T22:57:01.154Z,101058.91
2023-04-30T23:02:01.625Z,101054.38
2023-04-30T23:06:58.652Z,101066.94
2023-04-30T23:11:55.297Z,101074.75
2023-04-30T23:16:52.201Z,101070.88
2023-04-30T23:21:49.537Z,101062.91
2023-04-30T23:26:46.636Z,101072.59
2023-04-30T23:31:43.319Z,101065.78
2023-04-30T23:36:40.661Z,101069.34
2023-04-30T23:41:37.865Z,101060.13
2023-04-30T23:46:34.605Z,101060.84
2023-04-30T23:51:32.048Z,101062.78
2023-04-30T23:56:29.014Z,101069.53
